RJCW/WKJ METAR and TAF weather

Enter ICAO airport designator
Station Type Date Time Source
RJCW METAR 2019/02/17 09:00 UTC NOAA

RJCW 170900Z 28014KT 9999 FEW030 M02/M10 Q1004


Station Type Date Time Source
RJCW Decoded METAR 2019/02/17 09:00 UTC NOAA

Wakkanai Airport, Japan (RJCW) 45-24N 141-48E 11M
Feb 17, 2019 - 04:00 AM EST / 2019.02.17 0900 UTC
Wind: from the W (280 degrees) at 16 MPH (14 KT):0
Visibility: greater than 7 mile(s):0
Sky conditions: mostly clear
Temperature: 28 F (-2 C)
Windchill: 15 F (-9 C):1
Dew Point: 14 F (-10 C)
Relative Humidity: 54%
Pressure (altimeter): 29.65 in. Hg (1004 hPa)
ob: RJCW 170900Z 28014KT 9999 FEW030 M02/M10 Q1004
cycle: 9

Station Type Date Time Source
RJCW TAF UTC NOAA

Error!


Example: see airport list